sensor_id;sensor_type;location;lat;lon;timestamp;P1;durP1;ratioP1;P2;durP2;ratioP2
62927;SDS011;51070;52.236;-0.892;2022-11-23T00:02:11;7.00;;;5.20;;
62927;SDS011;51070;52.236;-0.892;2022-11-23T00:04:37;8.80;;;5.20;;
62927;SDS011;51070;52.236;-0.892;2022-11-23T00:07:02;10.20;;;5.80;;
62927;SDS011;51070;52.236;-0.892;2022-11-23T00:09:28;8.30;;;4.30;;
62927;SDS011;51070;52.236;-0.892;2022-11-23T00:11:53;11.40;;;5.60;;
62927;SDS011;51070;52.236;-0.892;2022-11-23T00:14:19;9.50;;;5.90;;
62927;SDS011;51070;52.236;-0.892;2022-11-23T00:16:44;8.70;;;5.20;;
62927;SDS011;51070;52.236;-0.892;2022-11-23T00:19:09;10.80;;;5.80;;
62927;SDS011;51070;52.236;-0.892;2022-11-23T00:21:35;9.00;;;6.00;;
62927;SDS011;51070;52.236;-0.892;2022-11-23T00:24:00;11.50;;;6.20;;
62927;SDS011;51070;52.236;-0.892;2022-11-23T00:26:26;9.80;;;6.40;;
62927;SDS011;51070;52.236;-0.892;2022-11-23T00:28:51;8.40;;;5.70;;
62927;SDS011;51070;52.236;-0.892;2022-11-23T00:31:17;11.00;;;5.90;;
62927;SDS011;51070;52.236;-0.892;2022-11-23T00:33:49;7.60;;;5.90;;
62927;SDS011;51070;52.236;-0.892;2022-11-23T00:36:16;9.50;;;6.40;;
62927;SDS011;51070;52.236;-0.892;2022-11-23T00:38:43;11.70;;;6.60;;
62927;SDS011;51070;52.236;-0.892;2022-11-23T00:41:13;10.10;;;7.50;;
62927;SDS011;51070;52.236;-0.892;2022-11-23T00:43:44;12.50;;;6.60;;
62927;SDS011;51070;52.236;-0.892;2022-11-23T00:46:17;12.50;;;8.70;;
62927;SDS011;51070;52.236;-0.892;2022-11-23T00:48:48;13.00;;;7.70;;
62927;SDS011;51070;52.236;-0.892;2022-11-23T00:51:17;12.60;;;5.80;;
62927;SDS011;51070;52.236;-0.892;2022-11-23T00:53:48;10.30;;;6.10;;
62927;SDS011;51070;52.236;-0.892;2022-11-23T00:56:15;11.90;;;6.40;;
62927;SDS011;51070;52.236;-0.892;2022-11-23T00:58:41;10.40;;;6.60;;
62927;SDS011;51070;52.236;-0.892;2022-11-23T01:01:10;11.70;;;6.60;;
62927;SDS011;51070;52.236;-0.892;2022-11-23T01:03:39;10.40;;;7.10;;
62927;SDS011;51070;52.236;-0.892;2022-11-23T01:06:07;12.30;;;7.90;;
62927;SDS011;51070;52.236;-0.892;2022-11-23T01:08:35;14.60;;;8.10;;
62927;SDS011;51070;52.236;-0.892;2022-11-23T01:11:02;12.10;;;8.00;;
62927;SDS011;51070;52.236;-0.892;2022-11-23T01:13:30;11.90;;;6.70;;
62927;SDS011;51070;52.236;-0.892;2022-11-23T01:15:56;10.50;;;7.40;;
62927;SDS011;51070;52.236;-0.892;2022-11-23T01:18:22;9.80;;;6.60;;
62927;SDS011;51070;52.236;-0.892;2022-11-23T01:20:48;9.80;;;6.30;;
62927;SDS011;51070;52.236;-0.892;2022-11-23T01:23:14;11.30;;;6.50;;
62927;SDS011;51070;52.236;-0.892;2022-11-23T01:25:39;11.70;;;6.10;;
62927;SDS011;51070;52.236;-0.892;2022-11-23T01:28:04;11.60;;;6.30;;
62927;SDS011;51070;52.236;-0.892;2022-11-23T01:30:30;10.40;;;5.80;;
62927;SDS011;51070;52.236;-0.892;2022-11-23T01:33:01;10.20;;;5.90;;
62927;SDS011;51070;52.236;-0.892;2022-11-23T01:35:27;11.40;;;7.50;;
62927;SDS011;51070;52.236;-0.892;2022-11-23T01:37:52;9.90;;;6.50;;
62927;SDS011;51070;52.236;-0.892;2022-11-23T01:40:18;8.20;;;5.50;;
62927;SDS011;51070;52.236;-0.892;2022-11-23T01:42:57;12.20;;;6.90;;
62927;SDS011;51070;52.236;-0.892;2022-11-23T01:45:40;10.50;;;6.40;;
62927;SDS011;51070;52.236;-0.892;2022-11-23T01:48:16;10.30;;;6.60;;
62927;SDS011;51070;52.236;-0.892;2022-11-23T01:50:47;7.60;;;5.00;;
62927;SDS011;51070;52.236;-0.892;2022-11-23T01:53:14;8.40;;;5.50;;
62927;SDS011;51070;52.236;-0.892;2022-11-23T01:55:41;9.00;;;5.40;;
62927;SDS011;51070;52.236;-0.892;2022-11-23T01:58:13;6.90;;;4.30;;
62927;SDS011;51070;52.236;-0.892;2022-11-23T02:00:43;4.10;;;3.10;;
62927;SDS011;51070;52.236;-0.892;2022-11-23T02:03:10;6.70;;;3.50;;
62927;SDS011;51070;52.236;-0.892;2022-11-23T02:05:39;7.40;;;4.30;;
62927;SDS011;51070;52.236;-0.892;2022-11-23T02:08:10;6.20;;;3.80;;
62927;SDS011;51070;52.236;-0.892;2022-11-23T02:10:37;9.10;;;4.60;;
62927;SDS011;51070;52.236;-0.892;2022-11-23T02:13:06;6.80;;;4.60;;
62927;SDS011;51070;52.236;-0.892;2022-11-23T02:15:34;11.40;;;4.50;;
62927;SDS011;51070;52.236;-0.892;2022-11-23T02:18:01;8.60;;;3.70;;
62927;SDS011;51070;52.236;-0.892;2022-11-23T02:20:29;5.90;;;4.00;;
62927;SDS011;51070;52.236;-0.892;2022-11-23T02:28:38;6.70;;;3.40;;
62927;SDS011;51070;52.236;-0.892;2022-11-23T02:31:10;6.30;;;3.30;;
62927;SDS011;51070;52.236;-0.892;2022-11-23T02:33:36;10.60;;;4.20;;
62927;SDS011;51070;52.236;-0.892;2022-11-23T02:38:55;6.30;;;3.90;;
62927;SDS011;51070;52.236;-0.892;2022-11-23T02:41:23;7.60;;;4.10;;
62927;SDS011;51070;52.236;-0.892;2022-11-23T02:43:50;7.70;;;3.80;;
62927;SDS011;51070;52.236;-0.892;2022-11-23T02:46:20;7.60;;;3.60;;
62927;SDS011;51070;52.236;-0.892;2022-11-23T02:48:45;7.20;;;4.40;;
62927;SDS011;51070;52.236;-0.892;2022-11-23T02:51:11;9.60;;;5.00;;
62927;SDS011;51070;52.236;-0.892;2022-11-23T02:53:36;9.00;;;4.20;;
62927;SDS011;51070;52.236;-0.892;2022-11-23T02:56:01;6.60;;;3.90;;
62927;SDS011;51070;52.236;-0.892;2022-11-23T02:58:27;6.00;;;3.40;;
62927;SDS011;51070;52.236;-0.892;2022-11-23T03:00:52;8.20;;;3.90;;
62927;SDS011;51070;52.236;-0.892;2022-11-23T03:03:17;5.50;;;3.50;;
62927;SDS011;51070;52.236;-0.892;2022-11-23T03:05:43;6.30;;;3.60;;
62927;SDS011;51070;52.236;-0.892;2022-11-23T03:08:08;8.20;;;3.70;;
62927;SDS011;51070;52.236;-0.892;2022-11-23T03:10:34;6.40;;;3.10;;
62927;SDS011;51070;52.236;-0.892;2022-11-23T03:13:02;8.20;;;4.10;;
62927;SDS011;51070;52.236;-0.892;2022-11-23T03:15:27;7.30;;;4.20;;
62927;SDS011;51070;52.236;-0.892;2022-11-23T03:17:53;8.50;;;3.90;;
62927;SDS011;51070;52.236;-0.892;2022-11-23T03:20:18;9.50;;;3.70;;
62927;SDS011;51070;52.236;-0.892;2022-11-23T03:22:44;7.00;;;3.20;;
62927;SDS011;51070;52.236;-0.892;2022-11-23T03:25:11;5.30;;;3.30;;
62927;SDS011;51070;52.236;-0.892;2022-11-23T03:27:36;6.20;;;3.10;;
62927;SDS011;51070;52.236;-0.892;2022-11-23T03:30:03;4.30;;;2.40;;
62927;SDS011;51070;52.236;-0.892;2022-11-23T03:32:29;7.20;;;3.20;;
62927;SDS011;51070;52.236;-0.892;2022-11-23T03:34:55;7.10;;;4.50;;
62927;SDS011;51070;52.236;-0.892;2022-11-23T03:37:20;5.40;;;3.00;;
62927;SDS011;51070;52.236;-0.892;2022-11-23T03:39:46;6.00;;;3.00;;
62927;SDS011;51070;52.236;-0.892;2022-11-23T03:42:11;4.80;;;3.00;;
62927;SDS011;51070;52.236;-0.892;2022-11-23T03:44:36;6.60;;;2.20;;
62927;SDS011;51070;52.236;-0.892;2022-11-23T03:47:02;5.20;;;2.80;;
62927;SDS011;51070;52.236;-0.892;2022-11-23T03:49:27;11.10;;;3.00;;
62927;SDS011;51070;52.236;-0.892;2022-11-23T03:51:52;3.60;;;1.80;;
62927;SDS011;51070;52.236;-0.892;2022-11-23T03:54:18;3.70;;;2.30;;
62927;SDS011;51070;52.236;-0.892;2022-11-23T03:56:43;3.40;;;2.30;;
62927;SDS011;51070;52.236;-0.892;2022-11-23T03:59:09;5.90;;;2.80;;
62927;SDS011;51070;52.236;-0.892;2022-11-23T04:01:34;5.50;;;2.30;;
62927;SDS011;51070;52.236;-0.892;2022-11-23T04:03:59;5.00;;;2.70;;
62927;SDS011;51070;52.236;-0.892;2022-11-23T04:06:25;9.10;;;2.90;;
62927;SDS011;51070;52.236;-0.892;2022-11-23T04:08:50;4.60;;;2.30;;
62927;SDS011;51070;52.236;-0.892;2022-11-23T04:11:16;5.20;;;2.60;;
62927;SDS011;51070;52.236;-0.892;2022-11-23T04:13:41;6.80;;;2.00;;
62927;SDS011;51070;52.236;-0.892;2022-11-23T04:16:07;4.90;;;2.30;;
62927;SDS011;51070;52.236;-0.892;2022-11-23T04:18:32;5.50;;;2.20;;
62927;SDS011;51070;52.236;-0.892;2022-11-23T04:20:58;6.40;;;2.00;;
62927;SDS011;51070;52.236;-0.892;2022-11-23T04:23:23;3.90;;;1.70;;
62927;SDS011;51070;52.236;-0.892;2022-11-23T04:25:49;3.90;;;2.00;;
62927;SDS011;51070;52.236;-0.892;2022-11-23T04:28:14;5.60;;;2.50;;
62927;SDS011;51070;52.236;-0.892;2022-11-23T04:30:39;4.30;;;2.00;;
62927;SDS011;51070;52.236;-0.892;2022-11-23T04:33:05;4.80;;;2.20;;
62927;SDS011;51070;52.236;-0.892;2022-11-23T04:35:30;5.20;;;2.40;;
62927;SDS011;51070;52.236;-0.892;2022-11-23T04:37:56;4.60;;;1.70;;
62927;SDS011;51070;52.236;-0.892;2022-11-23T04:40:21;5.40;;;2.20;;
62927;SDS011;51070;52.236;-0.892;2022-11-23T04:42:46;6.60;;;2.10;;
62927;SDS011;51070;52.236;-0.892;2022-11-23T04:45:12;3.00;;;1.50;;
62927;SDS011;51070;52.236;-0.892;2022-11-23T04:47:40;5.30;;;1.70;;
62927;SDS011;51070;52.236;-0.892;2022-11-23T04:50:06;5.60;;;1.60;;
62927;SDS011;51070;52.236;-0.892;2022-11-23T04:52:32;7.40;;;2.00;;
62927;SDS011;51070;52.236;-0.892;2022-11-23T04:54:57;4.80;;;1.30;;
62927;SDS011;51070;52.236;-0.892;2022-11-23T04:57:23;4.00;;;2.00;;
62927;SDS011;51070;52.236;-0.892;2022-11-23T04:59:48;5.90;;;2.20;;
62927;SDS011;51070;52.236;-0.892;2022-11-23T05:02:13;6.70;;;1.90;;
62927;SDS011;51070;52.236;-0.892;2022-11-23T05:04:39;2.50;;;1.70;;
62927;SDS011;51070;52.236;-0.892;2022-11-23T05:07:04;6.50;;;2.80;;
62927;SDS011;51070;52.236;-0.892;2022-11-23T05:09:30;4.50;;;1.50;;
62927;SDS011;51070;52.236;-0.892;2022-11-23T05:11:56;3.00;;;1.50;;
62927;SDS011;51070;52.236;-0.892;2022-11-23T05:14:21;3.00;;;1.90;;
62927;SDS011;51070;52.236;-0.892;2022-11-23T05:16:47;4.20;;;2.00;;
62927;SDS011;51070;52.236;-0.892;2022-11-23T05:19:12;6.20;;;2.20;;
62927;SDS011;51070;52.236;-0.892;2022-11-23T05:21:37;6.60;;;2.50;;
62927;SDS011;51070;52.236;-0.892;2022-11-23T05:24:03;6.50;;;2.20;;
62927;SDS011;51070;52.236;-0.892;2022-11-23T05:26:28;4.20;;;2.00;;
62927;SDS011;51070;52.236;-0.892;2022-11-23T05:28:54;4.60;;;2.30;;
62927;SDS011;51070;52.236;-0.892;2022-11-23T05:31:19;3.80;;;1.60;;
62927;SDS011;51070;52.236;-0.892;2022-11-23T05:33:44;4.50;;;1.50;;
62927;SDS011;51070;52.236;-0.892;2022-11-23T05:36:10;3.50;;;1.50;;
62927;SDS011;51070;52.236;-0.892;2022-11-23T05:38:38;6.70;;;1.60;;
62927;SDS011;51070;52.236;-0.892;2022-11-23T05:41:05;3.30;;;1.90;;
62927;SDS011;51070;52.236;-0.892;2022-11-23T05:43:30;3.80;;;1.90;;
62927;SDS011;51070;52.236;-0.892;2022-11-23T05:45:59;3.90;;;1.70;;
62927;SDS011;51070;52.236;-0.892;2022-11-23T05:48:26;5.80;;;2.10;;
62927;SDS011;51070;52.236;-0.892;2022-11-23T05:50:51;5.70;;;2.00;;
62927;SDS011;51070;52.236;-0.892;2022-11-23T05:53:17;3.30;;;1.60;;
62927;SDS011;51070;52.236;-0.892;2022-11-23T05:55:43;7.00;;;1.90;;
62927;SDS011;51070;52.236;-0.892;2022-11-23T05:58:10;7.20;;;1.90;;
62927;SDS011;51070;52.236;-0.892;2022-11-23T06:00:35;11.20;;;2.10;;
62927;SDS011;51070;52.236;-0.892;2022-11-23T06:03:01;4.10;;;1.40;;
62927;SDS011;51070;52.236;-0.892;2022-11-23T06:05:28;4.50;;;1.40;;
62927;SDS011;51070;52.236;-0.892;2022-11-23T06:07:53;3.00;;;1.20;;
62927;SDS011;51070;52.236;-0.892;2022-11-23T06:10:19;4.80;;;1.50;;
62927;SDS011;51070;52.236;-0.892;2022-11-23T06:12:45;4.40;;;1.50;;
62927;SDS011;51070;52.236;-0.892;2022-11-23T06:15:11;3.10;;;1.40;;
62927;SDS011;51070;52.236;-0.892;2022-11-23T06:17:37;3.90;;;1.40;;
62927;SDS011;51070;52.236;-0.892;2022-11-23T06:20:05;4.80;;;1.60;;
62927;SDS011;51070;52.236;-0.892;2022-11-23T06:22:32;3.20;;;1.40;;
62927;SDS011;51070;52.236;-0.892;2022-11-23T06:24:58;2.00;;;1.30;;
62927;SDS011;51070;52.236;-0.892;2022-11-23T06:27:24;4.40;;;1.70;;
62927;SDS011;51070;52.236;-0.892;2022-11-23T06:29:49;4.00;;;1.40;;
62927;SDS011;51070;52.236;-0.892;2022-11-23T06:32:15;3.90;;;1.50;;
62927;SDS011;51070;52.236;-0.892;2022-11-23T06:34:42;4.10;;;1.60;;
62927;SDS011;51070;52.236;-0.892;2022-11-23T06:37:07;6.30;;;1.90;;
62927;SDS011;51070;52.236;-0.892;2022-11-23T06:39:32;3.40;;;1.70;;
62927;SDS011;51070;52.236;-0.892;2022-11-23T06:41:58;4.20;;;1.50;;
62927;SDS011;51070;52.236;-0.892;2022-11-23T06:44:23;7.90;;;2.00;;
62927;SDS011;51070;52.236;-0.892;2022-11-23T06:46:49;4.60;;;1.30;;
62927;SDS011;51070;52.236;-0.892;2022-11-23T06:49:14;5.70;;;2.20;;
62927;SDS011;51070;52.236;-0.892;2022-11-23T06:51:41;3.60;;;1.50;;
62927;SDS011;51070;52.236;-0.892;2022-11-23T06:54:08;4.40;;;1.70;;
62927;SDS011;51070;52.236;-0.892;2022-11-23T06:56:34;4.90;;;1.50;;
62927;SDS011;51070;52.236;-0.892;2022-11-23T06:58:59;3.50;;;1.20;;
62927;SDS011;51070;52.236;-0.892;2022-11-23T07:01:24;2.10;;;1.10;;
62927;SDS011;51070;52.236;-0.892;2022-11-23T07:03:50;5.80;;;1.70;;
62927;SDS011;51070;52.236;-0.892;2022-11-23T07:06:15;4.00;;;1.30;;
62927;SDS011;51070;52.236;-0.892;2022-11-23T07:08:41;8.10;;;2.10;;
62927;SDS011;51070;52.236;-0.892;2022-11-23T07:11:08;3.70;;;1.10;;
62927;SDS011;51070;52.236;-0.892;2022-11-23T07:13:36;3.70;;;1.40;;
62927;SDS011;51070;52.236;-0.892;2022-11-23T07:16:02;6.90;;;1.80;;
62927;SDS011;51070;52.236;-0.892;2022-11-23T07:18:28;6.30;;;2.10;;
62927;SDS011;51070;52.236;-0.892;2022-11-23T07:20:55;5.50;;;1.40;;
62927;SDS011;51070;52.236;-0.892;2022-11-23T07:25:47;5.40;;;1.30;;
62927;SDS011;51070;52.236;-0.892;2022-11-23T07:28:13;13.50;;;2.10;;
62927;SDS011;51070;52.236;-0.892;2022-11-23T07:30:40;7.40;;;1.20;;
62927;SDS011;51070;52.236;-0.892;2022-11-23T07:33:07;3.30;;;1.30;;
62927;SDS011;51070;52.236;-0.892;2022-11-23T07:35:35;8.50;;;1.70;;
62927;SDS011;51070;52.236;-0.892;2022-11-23T07:38:02;4.20;;;1.70;;
62927;SDS011;51070;52.236;-0.892;2022-11-23T07:40:28;10.40;;;1.70;;
62927;SDS011;51070;52.236;-0.892;2022-11-23T07:43:01;8.60;;;1.50;;
62927;SDS011;51070;52.236;-0.892;2022-11-23T07:45:27;8.00;;;2.00;;
62927;SDS011;51070;52.236;-0.892;2022-11-23T07:48:00;5.20;;;1.60;;
62927;SDS011;51070;52.236;-0.892;2022-11-23T07:50:28;5.50;;;1.70;;
62927;SDS011;51070;52.236;-0.892;2022-11-23T07:52:53;9.10;;;1.70;;
62927;SDS011;51070;52.236;-0.892;2022-11-23T07:55:19;2.80;;;1.30;;
62927;SDS011;51070;52.236;-0.892;2022-11-23T07:57:45;6.20;;;1.90;;
62927;SDS011;51070;52.236;-0.892;2022-11-23T08:00:11;5.30;;;1.60;;
62927;SDS011;51070;52.236;-0.892;2022-11-23T08:02:37;5.40;;;1.40;;
62927;SDS011;51070;52.236;-0.892;2022-11-23T08:05:05;5.30;;;1.30;;
62927;SDS011;51070;52.236;-0.892;2022-11-23T08:07:31;4.30;;;1.70;;
62927;SDS011;51070;52.236;-0.892;2022-11-23T08:09:56;1.70;;;1.10;;
62927;SDS011;51070;52.236;-0.892;2022-11-23T08:12:21;4.70;;;1.30;;
62927;SDS011;51070;52.236;-0.892;2022-11-23T08:14:47;6.60;;;1.80;;
62927;SDS011;51070;52.236;-0.892;2022-11-23T08:17:12;4.80;;;1.50;;
62927;SDS011;51070;52.236;-0.892;2022-11-23T08:19:38;4.10;;;1.20;;
62927;SDS011;51070;52.236;-0.892;2022-11-23T08:22:03;6.20;;;1.30;;
62927;SDS011;51070;52.236;-0.892;2022-11-23T08:24:28;3.70;;;1.20;;
62927;SDS011;51070;52.236;-0.892;2022-11-23T08:26:54;4.90;;;1.40;;
62927;SDS011;51070;52.236;-0.892;2022-11-23T08:29:20;2.70;;;1.00;;
62927;SDS011;51070;52.236;-0.892;2022-11-23T08:31:45;1.30;;;1.00;;
62927;SDS011;51070;52.236;-0.892;2022-11-23T08:34:11;3.00;;;0.90;;
62927;SDS011;51070;52.236;-0.892;2022-11-23T08:36:36;2.00;;;0.90;;
62927;SDS011;51070;52.236;-0.892;2022-11-23T08:39:02;4.10;;;1.40;;
62927;SDS011;51070;52.236;-0.892;2022-11-23T08:41:27;2.40;;;0.80;;
62927;SDS011;51070;52.236;-0.892;2022-11-23T08:43:52;1.50;;;0.80;;
62927;SDS011;51070;52.236;-0.892;2022-11-23T08:46:18;3.50;;;1.20;;
62927;SDS011;51070;52.236;-0.892;2022-11-23T08:48:43;4.40;;;1.10;;
62927;SDS011;51070;52.236;-0.892;2022-11-23T08:51:09;5.40;;;1.30;;
62927;SDS011;51070;52.236;-0.892;2022-11-23T08:53:35;3.80;;;1.30;;
62927;SDS011;51070;52.236;-0.892;2022-11-23T08:56:02;4.00;;;1.10;;
62927;SDS011;51070;52.236;-0.892;2022-11-23T08:58:29;2.00;;;1.30;;
62927;SDS011;51070;52.236;-0.892;2022-11-23T09:00:54;3.00;;;1.40;;
62927;SDS011;51070;52.236;-0.892;2022-11-23T09:03:20;2.70;;;1.10;;
62927;SDS011;51070;52.236;-0.892;2022-11-23T09:05:45;2.40;;;1.00;;
62927;SDS011;51070;52.236;-0.892;2022-11-23T09:08:11;1.40;;;0.90;;
62927;SDS011;51070;52.236;-0.892;2022-11-23T09:10:36;1.30;;;1.10;;
62927;SDS011;51070;52.236;-0.892;2022-11-23T09:13:02;3.90;;;1.10;;
62927;SDS011;51070;52.236;-0.892;2022-11-23T09:15:28;0.70;;;0.70;;
62927;SDS011;51070;52.236;-0.892;2022-11-23T09:17:55;2.80;;;0.70;;
62927;SDS011;51070;52.236;-0.892;2022-11-23T09:20:21;1.30;;;0.40;;
62927;SDS011;51070;52.236;-0.892;2022-11-23T09:22:50;1.90;;;0.80;;
62927;SDS011;51070;52.236;-0.892;2022-11-23T09:25:17;1.50;;;0.70;;
62927;SDS011;51070;52.236;-0.892;2022-11-23T09:27:43;1.50;;;0.60;;
62927;SDS011;51070;52.236;-0.892;2022-11-23T09:30:10;1.20;;;0.60;;
62927;SDS011;51070;52.236;-0.892;2022-11-23T09:32:36;3.60;;;1.10;;
62927;SDS011;51070;52.236;-0.892;2022-11-23T09:35:01;0.40;;;0.30;;
62927;SDS011;51070;52.236;-0.892;2022-11-23T09:37:27;1.40;;;0.40;;
62927;SDS011;51070;52.236;-0.892;2022-11-23T09:39:52;2.20;;;0.60;;
62927;SDS011;51070;52.236;-0.892;2022-11-23T09:45:29;0.70;;;0.50;;
62927;SDS011;51070;52.236;-0.892;2022-11-23T09:50:47;0.40;;;0.40;;
62927;SDS011;51070;52.236;-0.892;2022-11-23T09:53:18;1.40;;;0.30;;
62927;SDS011;51070;52.236;-0.892;2022-11-23T09:55:48;1.70;;;0.30;;
62927;SDS011;51070;52.236;-0.892;2022-11-23T09:58:19;3.40;;;0.70;;
62927;SDS011;51070;52.236;-0.892;2022-11-23T10:00:49;1.00;;;0.30;;
62927;SDS011;51070;52.236;-0.892;2022-11-23T10:03:19;1.10;;;0.30;;
62927;SDS011;51070;52.236;-0.892;2022-11-23T10:17:14;1.80;;;0.50;;
62927;SDS011;51070;52.236;-0.892;2022-11-23T10:27:21;2.10;;;0.90;;
62927;SDS011;51070;52.236;-0.892;2022-11-23T10:29:48;4.50;;;0.80;;
62927;SDS011;51070;52.236;-0.892;2022-11-23T10:35:13;5.50;;;0.80;;
62927;SDS011;51070;52.236;-0.892;2022-11-23T10:37:39;4.30;;;0.70;;
62927;SDS011;51070;52.236;-0.892;2022-11-23T10:40:24;3.00;;;0.80;;
62927;SDS011;51070;52.236;-0.892;2022-11-23T10:43:00;3.40;;;0.60;;
62927;SDS011;51070;52.236;-0.892;2022-11-23T10:45:29;3.20;;;0.90;;
62927;SDS011;51070;52.236;-0.892;2022-11-23T10:47:56;2.20;;;1.00;;
62927;SDS011;51070;52.236;-0.892;2022-11-23T10:50:29;5.30;;;1.10;;
62927;SDS011;51070;52.236;-0.892;2022-11-23T10:55:31;6.20;;;1.40;;
62927;SDS011;51070;52.236;-0.892;2022-11-23T10:58:10;2.80;;;0.70;;
62927;SDS011;51070;52.236;-0.892;2022-11-23T11:00:57;7.80;;;1.30;;
62927;SDS011;51070;52.236;-0.892;2022-11-23T11:03:25;2.70;;;0.80;;
62927;SDS011;51070;52.236;-0.892;2022-11-23T11:05:50;2.30;;;0.70;;
62927;SDS011;51070;52.236;-0.892;2022-11-23T11:08:16;4.60;;;1.00;;
62927;SDS011;51070;52.236;-0.892;2022-11-23T11:13:28;2.80;;;0.80;;
62927;SDS011;51070;52.236;-0.892;2022-11-23T11:16:03;5.00;;;1.40;;
62927;SDS011;51070;52.236;-0.892;2022-11-23T11:18:32;2.30;;;0.80;;
62927;SDS011;51070;52.236;-0.892;2022-11-23T11:21:06;7.20;;;1.30;;
62927;SDS011;51070;52.236;-0.892;2022-11-23T11:23:50;5.90;;;1.30;;
62927;SDS011;51070;52.236;-0.892;2022-11-23T11:26:26;5.70;;;1.20;;
62927;SDS011;51070;52.236;-0.892;2022-11-23T11:28:55;3.00;;;0.80;;
62927;SDS011;51070;52.236;-0.892;2022-11-23T11:42:55;3.30;;;0.90;;
62927;SDS011;51070;52.236;-0.892;2022-11-23T11:45:27;2.70;;;0.90;;
62927;SDS011;51070;52.236;-0.892;2022-11-23T11:48:01;4.20;;;0.90;;
62927;SDS011;51070;52.236;-0.892;2022-11-23T11:50:40;6.30;;;1.10;;
62927;SDS011;51070;52.236;-0.892;2022-11-23T11:53:29;6.90;;;1.30;;
62927;SDS011;51070;52.236;-0.892;2022-11-23T11:58:30;5.10;;;1.20;;
62927;SDS011;51070;52.236;-0.892;2022-11-23T12:01:06;5.40;;;1.70;;
62927;SDS011;51070;52.236;-0.892;2022-11-23T12:03:45;7.00;;;1.50;;
62927;SDS011;51070;52.236;-0.892;2022-11-23T12:11:50;4.80;;;1.20;;
62927;SDS011;51070;52.236;-0.892;2022-11-23T12:14:16;6.70;;;1.70;;
62927;SDS011;51070;52.236;-0.892;2022-11-23T12:19:29;10.00;;;2.00;;
62927;SDS011;51070;52.236;-0.892;2022-11-23T12:39:28;5.10;;;1.30;;
62927;SDS011;51070;52.236;-0.892;2022-11-23T12:42:19;5.50;;;1.50;;
62927;SDS011;51070;52.236;-0.892;2022-11-23T12:47:28;8.10;;;1.50;;
62927;SDS011;51070;52.236;-0.892;2022-11-23T12:58:29;6.90;;;1.90;;
62927;SDS011;51070;52.236;-0.892;2022-11-23T13:19:07;9.30;;;2.00;;
62927;SDS011;51070;52.236;-0.892;2022-11-23T13:22:09;6.50;;;1.80;;
62927;SDS011;51070;52.236;-0.892;2022-11-23T13:25:01;14.60;;;2.90;;
62927;SDS011;51070;52.236;-0.892;2022-11-23T13:30:32;2.90;;;1.40;;
62927;SDS011;51070;52.236;-0.892;2022-11-23T13:33:24;5.20;;;0.90;;
62927;SDS011;51070;52.236;-0.892;2022-11-23T13:35:59;1.90;;;0.70;;
62927;SDS011;51070;52.236;-0.892;2022-11-23T13:38:26;5.70;;;1.00;;
62927;SDS011;51070;52.236;-0.892;2022-11-23T13:40:53;6.90;;;1.00;;
62927;SDS011;51070;52.236;-0.892;2022-11-23T13:43:23;9.20;;;2.00;;
62927;SDS011;51070;52.236;-0.892;2022-11-23T13:48:43;7.80;;;1.10;;
62927;SDS011;51070;52.236;-0.892;2022-11-23T13:51:11;3.00;;;0.60;;
62927;SDS011;51070;52.236;-0.892;2022-11-23T13:53:40;5.50;;;1.30;;
62927;SDS011;51070;52.236;-0.892;2022-11-23T13:57:09;3.60;;;0.90;;
62927;SDS011;51070;52.236;-0.892;2022-11-23T14:01:59;2.10;;;0.80;;
62927;SDS011;51070;52.236;-0.892;2022-11-23T14:04:34;8.10;;;1.00;;
62927;SDS011;51070;52.236;-0.892;2022-11-23T14:07:04;13.20;;;1.90;;
62927;SDS011;51070;52.236;-0.892;2022-11-23T14:09:58;3.40;;;0.70;;
62927;SDS011;51070;52.236;-0.892;2022-11-23T14:20:40;25.70;;;4.20;;
62927;SDS011;51070;52.236;-0.892;2022-11-23T14:23:19;4.30;;;1.80;;
62927;SDS011;51070;52.236;-0.892;2022-11-23T14:42:37;5.00;;;1.10;;
62927;SDS011;51070;52.236;-0.892;2022-11-23T14:45:14;4.80;;;1.20;;
62927;SDS011;51070;52.236;-0.892;2022-11-23T14:47:40;3.50;;;0.90;;
62927;SDS011;51070;52.236;-0.892;2022-11-23T14:50:15;5.00;;;1.50;;
62927;SDS011;51070;52.236;-0.892;2022-11-23T14:52:46;3.30;;;1.00;;
62927;SDS011;51070;52.236;-0.892;2022-11-23T14:55:19;4.10;;;1.00;;
62927;SDS011;51070;52.236;-0.892;2022-11-23T14:57:46;3.70;;;1.20;;
62927;SDS011;51070;52.236;-0.892;2022-11-23T15:00:23;2.70;;;1.00;;
62927;SDS011;51070;52.236;-0.892;2022-11-23T15:02:52;4.40;;;1.10;;
62927;SDS011;51070;52.236;-0.892;2022-11-23T15:05:21;2.40;;;0.80;;
62927;SDS011;51070;52.236;-0.892;2022-11-23T15:07:54;7.30;;;1.30;;
62927;SDS011;51070;52.236;-0.892;2022-11-23T15:10:51;2.40;;;0.70;;
62927;SDS011;51070;52.236;-0.892;2022-11-23T15:13:20;5.60;;;1.40;;
62927;SDS011;51070;52.236;-0.892;2022-11-23T15:15:51;6.00;;;1.10;;
62927;SDS011;51070;52.236;-0.892;2022-11-23T15:18:29;12.00;;;2.10;;
62927;SDS011;51070;52.236;-0.892;2022-11-23T15:21:20;9.30;;;1.50;;
62927;SDS011;51070;52.236;-0.892;2022-11-23T15:23:49;5.10;;;1.40;;
62927;SDS011;51070;52.236;-0.892;2022-11-23T15:29:01;8.90;;;1.80;;
62927;SDS011;51070;52.236;-0.892;2022-11-23T15:31:32;1.90;;;0.90;;
62927;SDS011;51070;52.236;-0.892;2022-11-23T15:34:15;9.90;;;1.90;;
62927;SDS011;51070;52.236;-0.892;2022-11-23T15:36:43;2.70;;;0.90;;
62927;SDS011;51070;52.236;-0.892;2022-11-23T15:39:14;4.10;;;1.00;;
62927;SDS011;51070;52.236;-0.892;2022-11-23T15:41:43;4.40;;;1.50;;
62927;SDS011;51070;52.236;-0.892;2022-11-23T15:44:31;4.40;;;1.50;;
62927;SDS011;51070;52.236;-0.892;2022-11-23T15:47:00;8.50;;;1.50;;
62927;SDS011;51070;52.236;-0.892;2022-11-23T15:49:35;3.40;;;1.00;;
62927;SDS011;51070;52.236;-0.892;2022-11-23T15:52:10;3.30;;;1.20;;
62927;SDS011;51070;52.236;-0.892;2022-11-23T15:54:39;6.10;;;1.30;;
62927;SDS011;51070;52.236;-0.892;2022-11-23T15:57:05;12.00;;;1.70;;
62927;SDS011;51070;52.236;-0.892;2022-11-23T15:59:39;8.50;;;2.00;;
62927;SDS011;51070;52.236;-0.892;2022-11-23T16:04:41;3.80;;;1.20;;
62927;SDS011;51070;52.236;-0.892;2022-11-23T16:07:23;4.60;;;1.90;;
62927;SDS011;51070;52.236;-0.892;2022-11-23T16:12:31;5.10;;;1.90;;
62927;SDS011;51070;52.236;-0.892;2022-11-23T16:15:28;7.60;;;2.00;;
62927;SDS011;51070;52.236;-0.892;2022-11-23T16:18:02;3.30;;;1.80;;
62927;SDS011;51070;52.236;-0.892;2022-11-23T16:20:30;8.80;;;2.00;;
62927;SDS011;51070;52.236;-0.892;2022-11-23T16:22:56;4.50;;;1.30;;
62927;SDS011;51070;52.236;-0.892;2022-11-23T16:25:33;5.80;;;1.40;;
62927;SDS011;51070;52.236;-0.892;2022-11-23T16:28:00;5.50;;;1.50;;
62927;SDS011;51070;52.236;-0.892;2022-11-23T16:30:38;4.10;;;1.50;;
62927;SDS011;51070;52.236;-0.892;2022-11-23T16:33:05;6.30;;;1.70;;
62927;SDS011;51070;52.236;-0.892;2022-11-23T16:35:38;10.40;;;2.30;;
62927;SDS011;51070;52.236;-0.892;2022-11-23T16:38:03;3.30;;;1.40;;
62927;SDS011;51070;52.236;-0.892;2022-11-23T16:40:29;5.10;;;1.70;;
62927;SDS011;51070;52.236;-0.892;2022-11-23T16:42:55;4.30;;;1.30;;
62927;SDS011;51070;52.236;-0.892;2022-11-23T16:45:21;4.80;;;1.50;;
62927;SDS011;51070;52.236;-0.892;2022-11-23T16:47:51;4.30;;;1.90;;
62927;SDS011;51070;52.236;-0.892;2022-11-23T16:50:20;4.60;;;1.90;;
62927;SDS011;51070;52.236;-0.892;2022-11-23T16:52:47;4.40;;;1.40;;
62927;SDS011;51070;52.236;-0.892;2022-11-23T16:55:12;10.30;;;2.00;;
62927;SDS011;51070;52.236;-0.892;2022-11-23T16:57:37;6.90;;;1.20;;
62927;SDS011;51070;52.236;-0.892;2022-11-23T17:00:05;5.70;;;1.80;;
62927;SDS011;51070;52.236;-0.892;2022-11-23T17:02:35;2.20;;;0.70;;
62927;SDS011;51070;52.236;-0.892;2022-11-23T17:05:01;5.90;;;1.40;;
62927;SDS011;51070;52.236;-0.892;2022-11-23T17:07:26;6.40;;;1.30;;
62927;SDS011;51070;52.236;-0.892;2022-11-23T17:09:52;4.10;;;1.60;;
62927;SDS011;51070;52.236;-0.892;2022-11-23T17:12:17;5.60;;;1.50;;
62927;SDS011;51070;52.236;-0.892;2022-11-23T17:14:45;5.10;;;2.00;;
62927;SDS011;51070;52.236;-0.892;2022-11-23T17:17:15;7.30;;;2.20;;